sensor_id;sensor_type;location;lat;lon;timestamp;P1;durP1;ratioP1;P2;durP2;ratioP2
74293;SDS011;64044;59.904;10.738;2023-06-22T00:00:49;13.63;;;12.23;;
74293;SDS011;64044;59.904;10.738;2023-06-22T00:03:15;13.55;;;12.25;;
74293;SDS011;64044;59.904;10.738;2023-06-22T00:05:48;13.73;;;12.32;;
74293;SDS011;64044;59.904;10.738;2023-06-22T00:08:14;13.48;;;11.75;;
74293;SDS011;64044;59.904;10.738;2023-06-22T00:10:40;15.88;;;12.95;;
74293;SDS011;64044;59.904;10.738;2023-06-22T00:13:07;14.52;;;13.02;;
74293;SDS011;64044;59.904;10.738;2023-06-22T00:15:33;14.48;;;12.38;;
74293;SDS011;64044;59.904;10.738;2023-06-22T00:18:00;13.32;;;11.98;;
74293;SDS011;64044;59.904;10.738;2023-06-22T00:20:26;15.25;;;12.25;;
74293;SDS011;64044;59.904;10.738;2023-06-22T00:22:53;16.60;;;13.10;;
74293;SDS011;64044;59.904;10.738;2023-06-22T00:25:19;15.52;;;12.80;;
74293;SDS011;64044;59.904;10.738;2023-06-22T00:27:45;13.48;;;11.27;;
74293;SDS011;64044;59.904;10.738;2023-06-22T00:30:11;13.05;;;11.65;;
74293;SDS011;64044;59.904;10.738;2023-06-22T00:32:37;13.23;;;10.88;;
74293;SDS011;64044;59.904;10.738;2023-06-22T00:35:02;13.45;;;11.95;;
74293;SDS011;64044;59.904;10.738;2023-06-22T00:37:28;13.40;;;11.23;;
74293;SDS011;64044;59.904;10.738;2023-06-22T00:39:54;11.73;;;10.57;;
74293;SDS011;64044;59.904;10.738;2023-06-22T00:42:24;17.08;;;12.20;;
74293;SDS011;64044;59.904;10.738;2023-06-22T00:44:49;13.40;;;12.13;;
74293;SDS011;64044;59.904;10.738;2023-06-22T00:47:15;12.45;;;11.25;;
74293;SDS011;64044;59.904;10.738;2023-06-22T00:49:43;12.70;;;11.40;;
74293;SDS011;64044;59.904;10.738;2023-06-22T00:52:09;13.38;;;11.75;;
74293;SDS011;64044;59.904;10.738;2023-06-22T00:54:38;12.55;;;11.30;;
74293;SDS011;64044;59.904;10.738;2023-06-22T00:57:11;13.93;;;11.30;;
74293;SDS011;64044;59.904;10.738;2023-06-22T00:59:42;13.98;;;11.68;;
74293;SDS011;64044;59.904;10.738;2023-06-22T01:02:09;13.82;;;10.38;;
74293;SDS011;64044;59.904;10.738;2023-06-22T01:04:35;11.65;;;10.40;;
74293;SDS011;64044;59.904;10.738;2023-06-22T01:07:06;10.10;;;9.10;;
74293;SDS011;64044;59.904;10.738;2023-06-22T01:10:13;10.75;;;9.65;;
74293;SDS011;64044;59.904;10.738;2023-06-22T01:12:51;10.93;;;9.75;;
74293;SDS011;64044;59.904;10.738;2023-06-22T01:15:27;11.85;;;8.73;;
74293;SDS011;64044;59.904;10.738;2023-06-22T01:17:56;10.10;;;9.15;;
74293;SDS011;64044;59.904;10.738;2023-06-22T01:20:23;12.75;;;8.88;;
74293;SDS011;64044;59.904;10.738;2023-06-22T01:25:28;9.57;;;8.60;;
74293;SDS011;64044;59.904;10.738;2023-06-22T01:30:49;8.63;;;7.60;;
74293;SDS011;64044;59.904;10.738;2023-06-22T01:33:30;9.98;;;8.05;;
74293;SDS011;64044;59.904;10.738;2023-06-22T01:35:58;8.10;;;7.30;;
74293;SDS011;64044;59.904;10.738;2023-06-22T01:38:26;7.75;;;7.00;;
74293;SDS011;64044;59.904;10.738;2023-06-22T01:40:54;8.98;;;7.20;;
74293;SDS011;64044;59.904;10.738;2023-06-22T01:43:22;7.25;;;6.65;;
74293;SDS011;64044;59.904;10.738;2023-06-22T01:45:51;8.80;;;6.57;;
74293;SDS011;64044;59.904;10.738;2023-06-22T01:48:18;8.88;;;6.82;;
74293;SDS011;64044;59.904;10.738;2023-06-22T01:50:44;7.60;;;6.90;;
74293;SDS011;64044;59.904;10.738;2023-06-22T01:53:10;8.13;;;7.32;;
74293;SDS011;64044;59.904;10.738;2023-06-22T01:55:36;7.38;;;6.68;;
74293;SDS011;64044;59.904;10.738;2023-06-22T01:58:01;6.82;;;6.15;;
74293;SDS011;64044;59.904;10.738;2023-06-22T02:00:29;5.45;;;4.95;;
74293;SDS011;64044;59.904;10.738;2023-06-22T02:03:02;4.93;;;4.32;;
74293;SDS011;64044;59.904;10.738;2023-06-22T02:05:39;5.80;;;4.38;;
74293;SDS011;64044;59.904;10.738;2023-06-22T02:08:20;5.18;;;4.20;;
74293;SDS011;64044;59.904;10.738;2023-06-22T02:10:48;4.47;;;4.07;;
74293;SDS011;64044;59.904;10.738;2023-06-22T02:13:15;6.72;;;3.80;;
74293;SDS011;64044;59.904;10.738;2023-06-22T02:15:41;4.38;;;3.97;;
74293;SDS011;64044;59.904;10.738;2023-06-22T02:18:08;3.67;;;3.38;;
74293;SDS011;64044;59.904;10.738;2023-06-22T02:20:37;4.20;;;3.53;;
74293;SDS011;64044;59.904;10.738;2023-06-22T02:23:04;4.57;;;3.55;;
74293;SDS011;64044;59.904;10.738;2023-06-22T02:25:31;3.88;;;3.10;;
74293;SDS011;64044;59.904;10.738;2023-06-22T02:27:57;4.40;;;3.53;;
74293;SDS011;64044;59.904;10.738;2023-06-22T02:30:23;2.92;;;2.70;;
74293;SDS011;64044;59.904;10.738;2023-06-22T02:32:48;5.05;;;3.10;;
74293;SDS011;64044;59.904;10.738;2023-06-22T02:35:14;4.28;;;3.75;;
74293;SDS011;64044;59.904;10.738;2023-06-22T02:37:40;4.88;;;4.18;;
74293;SDS011;64044;59.904;10.738;2023-06-22T02:40:09;3.67;;;3.38;;
74293;SDS011;64044;59.904;10.738;2023-06-22T02:42:35;3.83;;;3.47;;
74293;SDS011;64044;59.904;10.738;2023-06-22T02:45:04;3.47;;;3.17;;
74293;SDS011;64044;59.904;10.738;2023-06-22T02:47:30;3.58;;;3.28;;
74293;SDS011;64044;59.904;10.738;2023-06-22T02:49:56;3.53;;;3.20;;
74293;SDS011;64044;59.904;10.738;2023-06-22T02:52:22;5.95;;;3.13;;
74293;SDS011;64044;59.904;10.738;2023-06-22T02:54:48;3.63;;;2.95;;
74293;SDS011;64044;59.904;10.738;2023-06-22T02:57:13;4.00;;;3.60;;
74293;SDS011;64044;59.904;10.738;2023-06-22T02:59:40;5.93;;;4.00;;
74293;SDS011;64044;59.904;10.738;2023-06-22T03:02:07;4.80;;;4.07;;
74293;SDS011;64044;59.904;10.738;2023-06-22T03:04:34;4.05;;;3.65;;
74293;SDS011;64044;59.904;10.738;2023-06-22T03:07:00;4.28;;;3.88;;
74293;SDS011;64044;59.904;10.738;2023-06-22T03:09:26;4.53;;;4.13;;
74293;SDS011;64044;59.904;10.738;2023-06-22T03:11:53;5.07;;;4.57;;
74293;SDS011;64044;59.904;10.738;2023-06-22T03:14:22;5.72;;;3.97;;
74293;SDS011;64044;59.904;10.738;2023-06-22T03:16:47;9.05;;;4.63;;
74293;SDS011;64044;59.904;10.738;2023-06-22T03:19:13;5.45;;;4.43;;
74293;SDS011;64044;59.904;10.738;2023-06-22T03:21:39;4.57;;;4.00;;
74293;SDS011;64044;59.904;10.738;2023-06-22T03:24:05;4.88;;;4.03;;
74293;SDS011;64044;59.904;10.738;2023-06-22T03:26:31;3.30;;;3.00;;
74293;SDS011;64044;59.904;10.738;2023-06-22T03:28:57;4.85;;;3.30;;
74293;SDS011;64044;59.904;10.738;2023-06-22T03:31:23;3.17;;;2.88;;
74293;SDS011;64044;59.904;10.738;2023-06-22T03:33:49;3.55;;;3.25;;
74293;SDS011;64044;59.904;10.738;2023-06-22T03:36:15;3.80;;;3.25;;
74293;SDS011;64044;59.904;10.738;2023-06-22T03:38:48;4.55;;;3.55;;
74293;SDS011;64044;59.904;10.738;2023-06-22T03:41:15;4.60;;;3.70;;
74293;SDS011;64044;59.904;10.738;2023-06-22T03:43:40;3.38;;;3.08;;
74293;SDS011;64044;59.904;10.738;2023-06-22T03:46:06;3.53;;;2.92;;
74293;SDS011;64044;59.904;10.738;2023-06-22T03:48:32;6.35;;;3.30;;
74293;SDS011;64044;59.904;10.738;2023-06-22T03:51:01;3.40;;;3.08;;
74293;SDS011;64044;59.904;10.738;2023-06-22T03:53:28;3.13;;;2.83;;
74293;SDS011;64044;59.904;10.738;2023-06-22T03:55:54;3.30;;;2.92;;
74293;SDS011;64044;59.904;10.738;2023-06-22T03:58:20;3.22;;;2.72;;
74293;SDS011;64044;59.904;10.738;2023-06-22T04:00:46;4.63;;;3.42;;
74293;SDS011;64044;59.904;10.738;2023-06-22T04:03:16;3.03;;;2.83;;
74293;SDS011;64044;59.904;10.738;2023-06-22T04:05:43;2.45;;;2.17;;
74293;SDS011;64044;59.904;10.738;2023-06-22T04:08:09;3.03;;;2.40;;
74293;SDS011;64044;59.904;10.738;2023-06-22T04:10:35;3.25;;;2.20;;
74293;SDS011;64044;59.904;10.738;2023-06-22T04:13:01;1.98;;;1.88;;
74293;SDS011;64044;59.904;10.738;2023-06-22T04:15:27;2.47;;;1.92;;
74293;SDS011;64044;59.904;10.738;2023-06-22T04:17:54;3.42;;;2.33;;
74293;SDS011;64044;59.904;10.738;2023-06-22T04:20:20;1.70;;;1.60;;
74293;SDS011;64044;59.904;10.738;2023-06-22T04:22:46;2.58;;;2.15;;
74293;SDS011;64044;59.904;10.738;2023-06-22T04:25:12;1.70;;;1.55;;
74293;SDS011;64044;59.904;10.738;2023-06-22T04:27:38;2.28;;;1.90;;
74293;SDS011;64044;59.904;10.738;2023-06-22T04:30:07;2.78;;;1.80;;
74293;SDS011;64044;59.904;10.738;2023-06-22T04:32:34;2.03;;;1.63;;
74293;SDS011;64044;59.904;10.738;2023-06-22T04:35:03;4.57;;;2.00;;
74293;SDS011;64044;59.904;10.738;2023-06-22T04:37:32;1.85;;;1.75;;
74293;SDS011;64044;59.904;10.738;2023-06-22T04:39:58;2.00;;;1.80;;
74293;SDS011;64044;59.904;10.738;2023-06-22T04:42:27;2.30;;;2.10;;
74293;SDS011;64044;59.904;10.738;2023-06-22T04:44:53;3.10;;;1.80;;
74293;SDS011;64044;59.904;10.738;2023-06-22T04:47:19;1.90;;;1.80;;
74293;SDS011;64044;59.904;10.738;2023-06-22T04:49:45;2.28;;;2.08;;
74293;SDS011;64044;59.904;10.738;2023-06-22T04:52:12;1.75;;;1.63;;
74293;SDS011;64044;59.904;10.738;2023-06-22T04:54:39;2.60;;;1.90;;
74293;SDS011;64044;59.904;10.738;2023-06-22T04:57:12;2.20;;;1.80;;
74293;SDS011;64044;59.904;10.738;2023-06-22T04:59:38;3.05;;;2.03;;
74293;SDS011;64044;59.904;10.738;2023-06-22T05:02:06;2.88;;;1.92;;
74293;SDS011;64044;59.904;10.738;2023-06-22T05:04:32;1.77;;;1.67;;
74293;SDS011;64044;59.904;10.738;2023-06-22T05:07:00;3.90;;;1.50;;
74293;SDS011;64044;59.904;10.738;2023-06-22T05:09:27;1.52;;;1.42;;
74293;SDS011;64044;59.904;10.738;2023-06-22T05:11:53;3.25;;;1.80;;
74293;SDS011;64044;59.904;10.738;2023-06-22T05:14:19;2.30;;;2.10;;
74293;SDS011;64044;59.904;10.738;2023-06-22T05:16:45;2.75;;;1.75;;
74293;SDS011;64044;59.904;10.738;2023-06-22T05:19:11;1.77;;;1.33;;
74293;SDS011;64044;59.904;10.738;2023-06-22T05:21:37;1.70;;;1.52;;
74293;SDS011;64044;59.904;10.738;2023-06-22T05:24:03;1.50;;;1.40;;
74293;SDS011;64044;59.904;10.738;2023-06-22T05:26:30;1.90;;;1.80;;
74293;SDS011;64044;59.904;10.738;2023-06-22T05:28:58;1.48;;;1.38;;
74293;SDS011;64044;59.904;10.738;2023-06-22T05:31:24;1.83;;;1.55;;
74293;SDS011;64044;59.904;10.738;2023-06-22T05:33:51;4.65;;;1.70;;
74293;SDS011;64044;59.904;10.738;2023-06-22T05:36:18;1.48;;;1.38;;
74293;SDS011;64044;59.904;10.738;2023-06-22T05:38:50;1.65;;;1.55;;
74293;SDS011;64044;59.904;10.738;2023-06-22T05:41:16;1.80;;;1.40;;
74293;SDS011;64044;59.904;10.738;2023-06-22T05:43:42;2.10;;;1.50;;
74293;SDS011;64044;59.904;10.738;2023-06-22T05:46:08;2.00;;;1.77;;
74293;SDS011;64044;59.904;10.738;2023-06-22T05:48:34;2.05;;;1.70;;
74293;SDS011;64044;59.904;10.738;2023-06-22T05:50:59;1.88;;;1.65;;
74293;SDS011;64044;59.904;10.738;2023-06-22T05:53:25;2.35;;;1.60;;
74293;SDS011;64044;59.904;10.738;2023-06-22T05:55:51;1.85;;;1.75;;
74293;SDS011;64044;59.904;10.738;2023-06-22T05:58:17;2.25;;;1.50;;
74293;SDS011;64044;59.904;10.738;2023-06-22T06:00:42;3.20;;;1.50;;
74293;SDS011;64044;59.904;10.738;2023-06-22T06:03:08;1.88;;;1.40;;
74293;SDS011;64044;59.904;10.738;2023-06-22T06:05:35;2.50;;;1.73;;
74293;SDS011;64044;59.904;10.738;2023-06-22T06:08:02;1.70;;;1.60;;
74293;SDS011;64044;59.904;10.738;2023-06-22T06:10:30;1.83;;;1.70;;
74293;SDS011;64044;59.904;10.738;2023-06-22T06:12:57;2.13;;;1.60;;
74293;SDS011;64044;59.904;10.738;2023-06-22T06:15:23;1.70;;;1.52;;
74293;SDS011;64044;59.904;10.738;2023-06-22T06:17:49;1.50;;;1.40;;
74293;SDS011;64044;59.904;10.738;2023-06-22T06:20:18;1.50;;;1.30;;
74293;SDS011;64044;59.904;10.738;2023-06-22T06:22:46;1.85;;;1.67;;
74293;SDS011;64044;59.904;10.738;2023-06-22T06:25:12;1.77;;;1.50;;
74293;SDS011;64044;59.904;10.738;2023-06-22T06:27:41;1.60;;;1.50;;
74293;SDS011;64044;59.904;10.738;2023-06-22T06:30:08;1.58;;;1.33;;
74293;SDS011;64044;59.904;10.738;2023-06-22T06:32:38;1.50;;;1.40;;
74293;SDS011;64044;59.904;10.738;2023-06-22T06:35:08;3.05;;;1.65;;
74293;SDS011;64044;59.904;10.738;2023-06-22T06:37:40;1.60;;;1.35;;
74293;SDS011;64044;59.904;10.738;2023-06-22T06:40:07;2.00;;;1.80;;
74293;SDS011;64044;59.904;10.738;2023-06-22T06:42:37;3.33;;;2.00;;
74293;SDS011;64044;59.904;10.738;2023-06-22T06:45:06;1.52;;;1.42;;
74293;SDS011;64044;59.904;10.738;2023-06-22T06:47:33;1.50;;;1.40;;
74293;SDS011;64044;59.904;10.738;2023-06-22T06:49:59;1.98;;;1.65;;
74293;SDS011;64044;59.904;10.738;2023-06-22T06:52:25;2.00;;;1.80;;
74293;SDS011;64044;59.904;10.738;2023-06-22T06:54:51;1.52;;;1.42;;
74293;SDS011;64044;59.904;10.738;2023-06-22T06:57:17;1.63;;;1.38;;
74293;SDS011;64044;59.904;10.738;2023-06-22T06:59:43;1.30;;;1.20;;
74293;SDS011;64044;59.904;10.738;2023-06-22T07:02:09;1.88;;;1.60;;
74293;SDS011;64044;59.904;10.738;2023-06-22T07:04:35;11.43;;;2.50;;
74293;SDS011;64044;59.904;10.738;2023-06-22T07:07:01;1.73;;;1.60;;
74293;SDS011;64044;59.904;10.738;2023-06-22T07:09:28;3.10;;;1.70;;
74293;SDS011;64044;59.904;10.738;2023-06-22T07:11:54;1.55;;;1.45;;
74293;SDS011;64044;59.904;10.738;2023-06-22T07:14:20;2.35;;;1.95;;
74293;SDS011;64044;59.904;10.738;2023-06-22T07:16:45;1.65;;;1.50;;
74293;SDS011;64044;59.904;10.738;2023-06-22T07:19:11;2.58;;;2.03;;
74293;SDS011;64044;59.904;10.738;2023-06-22T07:21:38;1.88;;;1.60;;
74293;SDS011;64044;59.904;10.738;2023-06-22T07:24:04;1.70;;;1.50;;
74293;SDS011;64044;59.904;10.738;2023-06-22T07:26:31;1.70;;;1.60;;
74293;SDS011;64044;59.904;10.738;2023-06-22T07:28:57;1.77;;;1.65;;
74293;SDS011;64044;59.904;10.738;2023-06-22T07:31:24;1.60;;;1.50;;
74293;SDS011;64044;59.904;10.738;2023-06-22T07:33:50;1.67;;;1.58;;
74293;SDS011;64044;59.904;10.738;2023-06-22T07:36:16;1.52;;;1.42;;
74293;SDS011;64044;59.904;10.738;2023-06-22T07:38:42;2.00;;;1.77;;
74293;SDS011;64044;59.904;10.738;2023-06-22T07:41:08;2.38;;;1.92;;
74293;SDS011;64044;59.904;10.738;2023-06-22T07:43:34;2.20;;;1.70;;
74293;SDS011;64044;59.904;10.738;2023-06-22T07:46:02;1.55;;;1.40;;
74293;SDS011;64044;59.904;10.738;2023-06-22T07:48:29;2.13;;;1.92;;
74293;SDS011;64044;59.904;10.738;2023-06-22T07:50:55;1.52;;;1.40;;
74293;SDS011;64044;59.904;10.738;2023-06-22T07:53:20;1.67;;;1.35;;
74293;SDS011;64044;59.904;10.738;2023-06-22T07:55:47;2.30;;;1.30;;
74293;SDS011;64044;59.904;10.738;2023-06-22T07:58:13;1.50;;;1.38;;
74293;SDS011;64044;59.904;10.738;2023-06-22T08:00:38;3.00;;;1.33;;
74293;SDS011;64044;59.904;10.738;2023-06-22T08:05:55;1.88;;;1.67;;
74293;SDS011;64044;59.904;10.738;2023-06-22T08:08:21;1.48;;;1.30;;
74293;SDS011;64044;59.904;10.738;2023-06-22T08:10:47;1.35;;;1.25;;
74293;SDS011;64044;59.904;10.738;2023-06-22T08:13:13;1.48;;;1.38;;
74293;SDS011;64044;59.904;10.738;2023-06-22T08:15:39;1.70;;;1.60;;
74293;SDS011;64044;59.904;10.738;2023-06-22T08:18:04;2.05;;;1.70;;
74293;SDS011;64044;59.904;10.738;2023-06-22T08:20:30;1.63;;;1.52;;
74293;SDS011;64044;59.904;10.738;2023-06-22T08:22:56;1.88;;;1.30;;
74293;SDS011;64044;59.904;10.738;2023-06-22T08:25:25;1.70;;;1.50;;
74293;SDS011;64044;59.904;10.738;2023-06-22T08:27:51;1.17;;;1.17;;
74293;SDS011;64044;59.904;10.738;2023-06-22T08:30:17;1.25;;;1.10;;
74293;SDS011;64044;59.904;10.738;2023-06-22T08:32:43;1.85;;;1.40;;
74293;SDS011;64044;59.904;10.738;2023-06-22T08:35:09;1.23;;;1.13;;
74293;SDS011;64044;59.904;10.738;2023-06-22T08:37:35;3.70;;;1.48;;
74293;SDS011;64044;59.904;10.738;2023-06-22T08:40:02;1.40;;;1.30;;
74293;SDS011;64044;59.904;10.738;2023-06-22T08:42:33;1.45;;;1.35;;
74293;SDS011;64044;59.904;10.738;2023-06-22T08:44:59;1.52;;;1.30;;
74293;SDS011;64044;59.904;10.738;2023-06-22T08:47:27;2.33;;;1.20;;
74293;SDS011;64044;59.904;10.738;2023-06-22T08:49:53;1.42;;;1.20;;
74293;SDS011;64044;59.904;10.738;2023-06-22T08:52:19;2.08;;;1.05;;
74293;SDS011;64044;59.904;10.738;2023-06-22T08:54:45;1.42;;;1.23;;
74293;SDS011;64044;59.904;10.738;2023-06-22T08:57:14;1.52;;;1.38;;
74293;SDS011;64044;59.904;10.738;2023-06-22T08:59:41;1.13;;;0.95;;
74293;SDS011;64044;59.904;10.738;2023-06-22T09:02:07;1.00;;;1.00;;
74293;SDS011;64044;59.904;10.738;2023-06-22T09:04:33;1.70;;;1.10;;
74293;SDS011;64044;59.904;10.738;2023-06-22T09:07:01;1.30;;;1.20;;
74293;SDS011;64044;59.904;10.738;2023-06-22T09:09:28;1.13;;;1.02;;
74293;SDS011;64044;59.904;10.738;2023-06-22T09:11:53;1.27;;;1.17;;
74293;SDS011;64044;59.904;10.738;2023-06-22T09:14:19;1.40;;;1.30;;
74293;SDS011;64044;59.904;10.738;2023-06-22T09:16:45;3.53;;;1.35;;
74293;SDS011;64044;59.904;10.738;2023-06-22T09:19:11;1.63;;;1.35;;
74293;SDS011;64044;59.904;10.738;2023-06-22T09:21:37;2.08;;;1.45;;
74293;SDS011;64044;59.904;10.738;2023-06-22T09:24:03;1.10;;;1.10;;
74293;SDS011;64044;59.904;10.738;2023-06-22T09:26:29;1.30;;;1.10;;
74293;SDS011;64044;59.904;10.738;2023-06-22T09:28:55;2.25;;;1.20;;
74293;SDS011;64044;59.904;10.738;2023-06-22T09:31:20;1.02;;;0.90;;
74293;SDS011;64044;59.904;10.738;2023-06-22T09:33:52;1.40;;;1.20;;
74293;SDS011;64044;59.904;10.738;2023-06-22T09:36:19;1.05;;;1.02;;
74293;SDS011;64044;59.904;10.738;2023-06-22T09:38:48;1.52;;;1.17;;
74293;SDS011;64044;59.904;10.738;2023-06-22T09:41:20;2.45;;;1.20;;
74293;SDS011;64044;59.904;10.738;2023-06-22T09:43:46;1.33;;;1.23;;
74293;SDS011;64044;59.904;10.738;2023-06-22T09:46:14;1.23;;;1.13;;
74293;SDS011;64044;59.904;10.738;2023-06-22T09:48:41;1.13;;;1.02;;
74293;SDS011;64044;59.904;10.738;2023-06-22T09:51:06;1.38;;;1.02;;
74293;SDS011;64044;59.904;10.738;2023-06-22T09:53:32;1.05;;;1.05;;
74293;SDS011;64044;59.904;10.738;2023-06-22T09:55:59;1.33;;;1.10;;
74293;SDS011;64044;59.904;10.738;2023-06-22T09:58:26;3.40;;;1.17;;
74293;SDS011;64044;59.904;10.738;2023-06-22T10:00:52;1.00;;;0.90;;
74293;SDS011;64044;59.904;10.738;2023-06-22T10:03:19;1.52;;;0.80;;
74293;SDS011;64044;59.904;10.738;2023-06-22T10:05:45;0.95;;;0.90;;
74293;SDS011;64044;59.904;10.738;2023-06-22T10:08:11;1.05;;;0.95;;
74293;SDS011;64044;59.904;10.738;2023-06-22T10:10:37;0.85;;;0.85;;
74293;SDS011;64044;59.904;10.738;2023-06-22T10:13:07;1.10;;;1.00;;
74293;SDS011;64044;59.904;10.738;2023-06-22T10:15:37;0.80;;;0.80;;
74293;SDS011;64044;59.904;10.738;2023-06-22T10:18:03;1.42;;;1.10;;
74293;SDS011;64044;59.904;10.738;2023-06-22T10:20:29;0.82;;;0.73;;
74293;SDS011;64044;59.904;10.738;2023-06-22T10:22:55;1.48;;;0.82;;
74293;SDS011;64044;59.904;10.738;2023-06-22T10:25:21;1.20;;;1.10;;
74293;SDS011;64044;59.904;10.738;2023-06-22T10:27:47;0.75;;;0.70;;
74293;SDS011;64044;59.904;10.738;2023-06-22T10:30:13;1.10;;;1.00;;
74293;SDS011;64044;59.904;10.738;2023-06-22T10:32:39;0.85;;;0.85;;
74293;SDS011;64044;59.904;10.738;2023-06-22T10:35:07;0.95;;;0.90;;
74293;SDS011;64044;59.904;10.738;2023-06-22T10:37:33;0.80;;;0.80;;
74293;SDS011;64044;59.904;10.738;2023-06-22T10:39:59;0.80;;;0.80;;
74293;SDS011;64044;59.904;10.738;2023-06-22T10:42:24;1.10;;;0.90;;
74293;SDS011;64044;59.904;10.738;2023-06-22T10:44:50;0.80;;;0.80;;
74293;SDS011;64044;59.904;10.738;2023-06-22T10:47:16;1.20;;;0.77;;
74293;SDS011;64044;59.904;10.738;2023-06-22T10:49:42;1.33;;;1.00;;
74293;SDS011;64044;59.904;10.738;2023-06-22T10:52:08;4.13;;;1.02;;
74293;SDS011;64044;59.904;10.738;2023-06-22T10:54:34;1.17;;;0.90;;
74293;SDS011;64044;59.904;10.738;2023-06-22T10:57:01;0.70;;;0.70;;
74293;SDS011;64044;59.904;10.738;2023-06-22T10:59:27;0.85;;;0.80;;
74293;SDS011;64044;59.904;10.738;2023-06-22T11:01:58;1.20;;;0.70;;
74293;SDS011;64044;59.904;10.738;2023-06-22T11:04:23;1.10;;;0.80;;
74293;SDS011;64044;59.904;10.738;2023-06-22T11:06:49;2.55;;;0.90;;
74293;SDS011;64044;59.904;10.738;2023-06-22T11:09:16;1.08;;;0.80;;
74293;SDS011;64044;59.904;10.738;2023-06-22T11:11:45;0.70;;;0.70;;
74293;SDS011;64044;59.904;10.738;2023-06-22T11:14:15;1.17;;;0.88;;
74293;SDS011;64044;59.904;10.738;2023-06-22T11:16:41;0.70;;;0.70;;
74293;SDS011;64044;59.904;10.738;2023-06-22T11:19:07;2.88;;;1.10;;
74293;SDS011;64044;59.904;10.738;2023-06-22T11:21:33;1.90;;;0.90;;
74293;SDS011;64044;59.904;10.738;2023-06-22T11:23:59;0.77;;;0.77;;
74293;SDS011;64044;59.904;10.738;2023-06-22T11:26:25;0.82;;;0.80;;
74293;SDS011;64044;59.904;10.738;2023-06-22T11:28:52;1.58;;;0.90;;
74293;SDS011;64044;59.904;10.738;2023-06-22T11:31:18;0.70;;;0.70;;
74293;SDS011;64044;59.904;10.738;2023-06-22T11:33:44;0.60;;;0.60;;
74293;SDS011;64044;59.904;10.738;2023-06-22T11:36:11;0.60;;;0.60;;
74293;SDS011;64044;59.904;10.738;2023-06-22T11:38:37;1.20;;;1.08;;
74293;SDS011;64044;59.904;10.738;2023-06-22T11:41:05;4.43;;;1.17;;
74293;SDS011;64044;59.904;10.738;2023-06-22T11:43:31;1.17;;;0.90;;
74293;SDS011;64044;59.904;10.738;2023-06-22T11:45:58;1.35;;;1.25;;
74293;SDS011;64044;59.904;10.738;2023-06-22T11:48:25;1.63;;;0.82;;
74293;SDS011;64044;59.904;10.738;2023-06-22T11:50:51;0.70;;;0.70;;
74293;SDS011;64044;59.904;10.738;2023-06-22T11:53:16;0.93;;;0.90;;
74293;SDS011;64044;59.904;10.738;2023-06-22T11:55:43;0.95;;;0.90;;
74293;SDS011;64044;59.904;10.738;2023-06-22T11:58:12;0.85;;;0.80;;
74293;SDS011;64044;59.904;10.738;2023-06-22T12:00:37;0.75;;;0.70;;
74293;SDS011;64044;59.904;10.738;2023-06-22T12:03:03;0.60;;;0.60;;
74293;SDS011;64044;59.904;10.738;2023-06-22T12:05:29;2.35;;;1.33;;
74293;SDS011;64044;59.904;10.738;2023-06-22T12:07:55;0.38;;;0.38;;
74293;SDS011;64044;59.904;10.738;2023-06-22T12:10:21;1.42;;;0.75;;
74293;SDS011;64044;59.904;10.738;2023-06-22T12:12:48;0.70;;;0.70;;
74293;SDS011;64044;59.904;10.738;2023-06-22T12:15:13;1.33;;;1.17;;
74293;SDS011;64044;59.904;10.738;2023-06-22T12:17:40;2.65;;;2.22;;
74293;SDS011;64044;59.904;10.738;2023-06-22T12:20:06;2.20;;;2.00;;
74293;SDS011;64044;59.904;10.738;2023-06-22T12:22:33;1.10;;;0.80;;
74293;SDS011;64044;59.904;10.738;2023-06-22T12:24:59;0.80;;;0.80;;
74293;SDS011;64044;59.904;10.738;2023-06-22T12:27:25;1.05;;;0.70;;
74293;SDS011;64044;59.904;10.738;2023-06-22T12:29:51;0.85;;;0.85;;
74293;SDS011;64044;59.904;10.738;2023-06-22T12:32:17;1.67;;;0.70;;
74293;SDS011;64044;59.904;10.738;2023-06-22T12:34:43;1.33;;;1.23;;
74293;SDS011;64044;59.904;10.738;2023-06-22T12:37:09;2.05;;;1.50;;
74293;SDS011;64044;59.904;10.738;2023-06-22T12:39:35;1.38;;;0.90;;
74293;SDS011;64044;59.904;10.738;2023-06-22T12:42:01;1.38;;;1.27;;
74293;SDS011;64044;59.904;10.738;2023-06-22T12:44:27;2.78;;;0.90;;
74293;SDS011;64044;59.904;10.738;2023-06-22T12:46:52;1.45;;;0.80;;
74293;SDS011;64044;59.904;10.738;2023-06-22T12:49:18;1.20;;;1.00;;
74293;SDS011;64044;59.904;10.738;2023-06-22T12:51:44;1.10;;;1.00;;
74293;SDS011;64044;59.904;10.738;2023-06-22T12:54:10;1.95;;;1.20;;
74293;SDS011;64044;59.904;10.738;2023-06-22T12:56:37;1.67;;;1.38;;
74293;SDS011;64044;59.904;10.738;2023-06-22T12:59:06;1.58;;;1.10;;
74293;SDS011;64044;59.904;10.738;2023-06-22T13:01:31;2.58;;;1.60;;
74293;SDS011;64044;59.904;10.738;2023-06-22T13:04:00;1.35;;;1.25;;
74293;SDS011;64044;59.904;10.738;2023-06-22T13:06:26;1.38;;;1.20;;
74293;SDS011;64044;59.904;10.738;2023-06-22T13:08:52;1.30;;;1.20;;
74293;SDS011;64044;59.904;10.738;2023-06-22T13:11:17;1.98;;;1.25;;
74293;SDS011;64044;59.904;10.738;2023-06-22T13:13:44;1.70;;;1.20;;
74293;SDS011;64044;59.904;10.738;2023-06-22T13:16:10;1.20;;;1.10;;
74293;SDS011;64044;59.904;10.738;2023-06-22T13:18:36;1.45;;;1.35;;
74293;SDS011;64044;59.904;10.738;2023-06-22T13:21:02;1.60;;;1.50;;
74293;SDS011;64044;59.904;10.738;2023-06-22T13:23:29;2.92;;;1.52;;
74293;SDS011;64044;59.904;10.738;2023-06-22T13:25:54;1.45;;;1.35;;
74293;SDS011;64044;59.904;10.738;2023-06-22T13:28:20;1.40;;;1.30;;
74293;SDS011;64044;59.904;10.738;2023-06-22T13:30:46;1.60;;;1.50;;
74293;SDS011;64044;59.904;10.738;2023-06-22T13:33:37;4.30;;;1.80;;
74293;SDS011;64044;59.904;10.738;2023-06-22T13:36:05;1.85;;;1.60;;
74293;SDS011;64044;59.904;10.738;2023-06-22T13:38:32;1.88;;;1.77;;
74293;SDS011;64044;59.904;10.738;2023-06-22T13:40:59;1.88;;;1.48;;
74293;SDS011;64044;59.904;10.738;2023-06-22T13:43:26;2.67;;;1.75;;
74293;SDS011;64044;59.904;10.738;2023-06-22T13:45:52;1.80;;;1.70;;
74293;SDS011;64044;59.904;10.738;2023-06-22T13:48:18;1.70;;;1.60;;
74293;SDS011;64044;59.904;10.738;2023-06-22T13:50:43;3.70;;;2.08;;
74293;SDS011;64044;59.904;10.738;2023-06-22T13:53:09;2.17;;;1.90;;
74293;SDS011;64044;59.904;10.738;2023-06-22T13:55:35;3.38;;;1.92;;
74293;SDS011;64044;59.904;10.738;2023-06-22T13:58:00;1.75;;;1.58;;
74293;SDS011;64044;59.904;10.738;2023-06-22T14:00:26;1.80;;;1.70;;
74293;SDS011;64044;59.904;10.738;2023-06-22T14:02:53;1.85;;;1.75;;
74293;SDS011;64044;59.904;10.738;2023-06-22T14:05:19;2.25;;;2.05;;
74293;SDS011;64044;59.904;10.738;2023-06-22T14:07:45;3.05;;;1.75;;
74293;SDS011;64044;59.904;10.738;2023-06-22T14:10:11;2.55;;;1.98;;
74293;SDS011;64044;59.904;10.738;2023-06-22T14:12:36;3.47;;;1.88;;
74293;SDS011;64044;59.904;10.738;2023-06-22T14:15:02;3.38;;;1.70;;
74293;SDS011;64044;59.904;10.738;2023-06-22T14:17:28;2.30;;;2.00;;
74293;SDS011;64044;59.904;10.738;2023-06-22T14:19:54;2.13;;;2.00;;
74293;SDS011;64044;59.904;10.738;2023-06-22T14:22:20;1.70;;;1.60;;
74293;SDS011;64044;59.904;10.738;2023-06-22T14:24:47;2.65;;;1.85;;
74293;SDS011;64044;59.904;10.738;2023-06-22T14:27:13;2.33;;;2.05;;
74293;SDS011;64044;59.904;10.738;2023-06-22T14:29:39;3.80;;;2.03;;
74293;SDS011;64044;59.904;10.738;2023-06-22T14:32:05;2.05;;;1.95;;
74293;SDS011;64044;59.904;10.738;2023-06-22T14:34:35;3.35;;;2.40;;
74293;SDS011;64044;59.904;10.738;2023-06-22T14:37:04;2.50;;;2.30;;
74293;SDS011;64044;59.904;10.738;2023-06-22T14:39:34;4.00;;;2.70;;